Time;durP1;ratioP1;P1;durP2;ratioP2;P2;SDS_P1;SDS_P2;PMS_P1;PMS_P2;Temp;Humidity;BMP_temperature;BMP_pressure;BME280_temperature;BME280_humidity;BME280_pressure;Samples;Min_cycle;Max_cycle;Signal;HPM_P1;HPM_P2
2023/11/25 00:08:09;;;;;;;7.80;4.05;;;;;;;7.45;100.00;101440.31;4875328;29;20032;-95
2023/11/25 00:10:41;;;;;;;7.05;3.85;;;;;;;7.36;100.00;101427.75;4838258;29;20181;-93
2023/11/25 00:18:48;;;;;;;;;;;;;;;;;;;;;
2023/11/25 00:22:11;;;;;;;9.63;4.25;;;;;;;7.33;100.00;101413.00;4876794;29;20155;-94
2023/11/25 00:33:33;;;;;;;7.63;4.88;;;;;;;6.69;100.00;101374.94;4836601;29;20045;-95
2023/11/25 00:41:21;;;;;;;9.50;5.22;;;;;;;6.72;100.00;101366.84;4822466;29;20457;-95
2023/11/25 00:56:32;;;;;;;8.50;4.45;;;;;;;6.13;100.00;101334.53;4787237;29;20054;-95
2023/11/25 00:59:39;;;;;;;9.35;4.45;;;;;;;6.07;100.00;101327.03;4841317;29;20045;-94
2023/11/25 01:19:04;;;;;;;10.63;4.20;;;;;;;6.19;100.00;101325.44;4809363;29;20118;-95
2023/11/25 01:35:12;;;;;;;8.70;4.15;;;;;;;6.16;100.00;101317.75;4859474;29;20052;-95
2023/11/25 01:37:48;;;;;;;7.72;3.42;;;;;;;6.11;100.00;101320.66;4811622;29;20396;-94
2023/11/25 01:40:23;;;;;;;5.43;3.40;;;;;;;6.11;100.00;101317.19;4843836;29;20037;-95
2023/11/25 01:42:49;;;;;;;8.27;3.25;;;;;;;6.19;100.00;101322.81;4860346;29;20036;-96
2023/11/25 01:45:17;;;;;;;8.27;3.20;;;;;;;6.22;100.00;101317.38;4848826;29;20080;-94
2023/11/25 01:47:43;;;;;;;5.63;3.90;;;;;;;6.19;100.00;101314.94;4832294;29;20037;-96
2023/11/25 01:50:10;;;;;;;9.60;3.88;;;;;;;6.18;100.00;101313.28;4834255;29;20041;-95
2023/11/25 01:52:37;;;;;;;6.78;4.00;;;;;;;6.08;100.00;101305.94;4861850;29;20037;-95
2023/11/25 01:55:04;;;;;;;9.65;4.60;;;;;;;6.02;100.00;101315.94;4829578;29;20189;-95
2023/11/25 01:57:31;;;;;;;7.35;4.65;;;;;;;5.96;100.00;101304.03;4865917;29;20049;-95
2023/11/25 01:59:57;;;;;;;8.57;4.68;;;;;;;6.04;100.00;101299.19;4880610;29;20045;-95
2023/11/25 02:02:37;;;;;;;9.50;4.45;;;;;;;6.17;100.00;101303.69;4830123;29;20062;-96
2023/11/25 02:05:17;;;;;;;9.60;4.93;;;;;;;6.19;100.00;101314.94;4861931;29;20032;-95
2023/11/25 02:07:49;;;;;;;11.32;3.97;;;;;;;6.15;100.00;101308.19;4831936;29;20036;-95
2023/11/25 02:10:24;;;;;;;10.13;5.38;;;;;;;5.96;100.00;101280.41;4828765;29;20055;-95
2023/11/25 02:12:53;;;;;;;13.57;7.03;;;;;;;5.83;100.00;101290.78;4845237;29;20049;-95
2023/11/25 02:15:24;;;;;;;14.13;6.13;;;;;;;5.84;100.00;101295.94;4879580;29;20029;-95
2023/11/25 02:17:50;;;;;;;9.43;5.68;;;;;;;5.88;100.00;101304.50;4868420;29;20056;-95
2023/11/25 02:20:42;;;;;;;10.18;4.95;;;;;;;5.99;100.00;101300.38;4830335;29;20101;-96
2023/11/25 02:23:24;;;;;;;10.88;4.60;;;;;;;6.03;100.00;101292.22;4875898;29;20136;-94
2023/11/25 02:25:55;;;;;;;8.48;4.38;;;;;;;6.02;100.00;101287.06;4861329;29;20081;-92
2023/11/25 02:28:21;;;;;;;14.30;5.15;;;;;;;5.99;100.00;101280.22;4868650;29;20487;-93
2023/11/25 02:30:53;;;;;;;8.98;4.63;;;;;;;5.96;100.00;101280.41;4853009;29;20074;-93
2023/11/25 02:33:21;;;;;;;6.95;3.67;;;;;;;5.93;100.00;101280.59;4841067;29;20037;-93
2023/11/25 02:35:48;;;;;;;12.07;6.00;;;;;;;5.96;100.00;101278.63;4857291;29;20208;-93
2023/11/25 02:38:15;;;;;;;13.18;5.47;;;;;;;5.98;100.00;101272.44;4843279;29;20037;-93
2023/11/25 02:40:54;;;;;;;9.77;4.78;;;;;;;5.94;100.00;101261.31;4841662;29;20116;-95
2023/11/25 02:43:31;;;;;;;15.75;5.78;;;;;;;5.87;100.00;101268.69;4848678;29;20052;-96
2023/11/25 02:45:57;;;;;;;12.40;5.90;;;;;;;5.84;100.00;101263.63;4828292;29;20049;-95
2023/11/25 02:48:35;;;;;;;10.20;5.22;;;;;;;5.92;100.00;101268.41;4825967;29;20048;-95
2023/11/25 02:51:12;;;;;;;12.98;4.68;;;;;;;5.91;100.00;101269.38;4859573;29;20052;-95
2023/11/25 02:54:14;;;;;;;10.50;4.43;;;;;;;5.90;100.00;101260.66;4831124;29;20116;-95
2023/11/25 02:57:28;;;;;;;18.02;6.50;;;;;;;5.95;100.00;101261.22;4865264;29;20036;-95
2023/11/25 03:05:20;;;;;;;8.93;4.53;;;;;;;5.89;100.00;101247.63;4874401;29;20044;-95
2023/11/25 03:07:54;;;;;;;9.68;4.90;;;;;;;5.87;100.00;101254.72;4800877;29;20104;-95
2023/11/25 03:10:30;;;;;;;12.50;5.78;;;;;;;5.89;100.00;101243.19;4851536;29;20049;-96
2023/11/25 03:13:07;;;;;;;15.60;5.90;;;;;;;5.92;100.00;101248.28;4809396;29;20043;-96
2023/11/25 03:15:36;;;;;;;11.18;6.75;;;;;;;5.89;100.00;101237.13;4826695;29;20541;-94
2023/11/25 03:18:01;;;;;;;11.88;6.57;;;;;;;5.88;100.00;101244.13;4803277;29;20145;-94
2023/11/25 03:20:33;;;;;;;15.68;5.75;;;;;;;5.84;100.00;101253.16;4786998;29;20182;-95
2023/11/25 03:23:06;;;;;;;17.42;5.47;;;;;;;5.88;100.00;101243.28;4798238;29;20058;-96
2023/11/25 03:25:32;;;;;;;13.85;5.70;;;;;;;5.90;100.00;101238.78;4810539;29;20432;-93
2023/11/25 03:28:10;;;;;;;8.85;4.93;;;;;;;5.95;100.00;101239.38;4792562;29;20149;-93
2023/11/25 03:30:36;;;;;;;11.32;5.32;;;;;;;5.98;100.00;101240.94;4788654;29;20112;-94
2023/11/25 03:33:07;;;;;;;8.02;5.43;;;;;;;5.94;100.00;101238.50;4783637;29;20512;-94
2023/11/25 03:35:34;;;;;;;10.77;5.28;;;;;;;5.94;100.00;101237.69;4788611;29;20054;-94
2023/11/25 03:38:01;;;;;;;10.77;5.85;;;;;;;5.83;100.00;101228.69;4789047;29;20169;-94
2023/11/25 03:40:34;;;;;;;10.85;5.00;;;;;;;5.62;100.00;101228.22;4814515;29;20049;-94
2023/11/25 03:43:00;;;;;;;8.02;5.22;;;;;;;5.55;100.00;101230.34;4861679;29;20049;-94
2023/11/25 03:45:26;;;;;;;15.13;5.68;;;;;;;5.54;100.00;101233.06;4877977;29;20048;-93
2023/11/25 03:47:53;;;;;;;9.70;4.75;;;;;;;5.49;100.00;101230.72;4864959;29;20044;-94
2023/11/25 03:50:19;;;;;;;7.32;5.00;;;;;;;5.44;100.00;101235.41;4877452;29;20033;-94
2023/11/25 03:52:45;;;;;;;11.38;5.40;;;;;;;5.36;100.00;101230.59;4845985;29;20036;-95
2023/11/25 03:55:11;;;;;;;17.35;5.45;;;;;;;5.28;100.00;101230.22;4862224;29;20037;-94
2023/11/25 03:57:39;;;;;;;13.10;5.32;;;;;;;5.22;100.00;101231.41;4877267;29;20484;-94
2023/11/25 04:00:15;;;;;;;12.82;4.45;;;;;;;5.20;100.00;101231.50;4830678;29;20198;-95
2023/11/25 04:02:43;;;;;;;15.40;5.05;;;;;;;5.24;100.00;101232.16;4832034;29;20044;-94
2023/11/25 04:05:10;;;;;;;7.28;4.53;;;;;;;5.24;100.00;101236.56;4846737;29;20151;-94
2023/11/25 04:07:36;;;;;;;12.48;5.00;;;;;;;5.18;100.00;101243.84;4846778;29;20044;-94
2023/11/25 04:10:20;;;;;;;15.65;4.80;;;;;;;5.08;100.00;101227.81;4846106;29;20033;-95
2023/11/25 04:13:02;;;;;;;13.13;4.75;;;;;;;5.10;100.00;101232.97;4830045;29;20055;-96
2023/11/25 04:15:39;;;;;;;10.95;4.63;;;;;;;5.14;100.00;101233.63;4862408;29;20076;-94
2023/11/25 04:18:56;;;;;;;12.65;4.70;;;;;;;5.02;100.00;101228.16;4828668;29;20685;-94
2023/11/25 04:22:08;;;;;;;;;;;;;;;4.72;100.00;101226.38;4765193;29;20552;-95
2023/11/25 04:25:18;;;;;;;16.05;4.80;;;;;;;4.58;100.00;101221.91;4771288;29;20393;-95
2023/11/25 04:28:17;;;;;;;6.60;4.40;;;;;;;4.68;100.00;101223.06;4758566;30;20245;-96
2023/11/25 04:31:20;;;;;;;13.30;4.72;;;;;;;4.66;100.00;101232.81;4775049;29;20043;-93
2023/11/25 04:33:46;;;;;;;9.07;4.95;;;;;;;4.67;100.00;101237.09;4857693;29;20060;-93
2023/11/25 04:36:15;;;;;;;7.68;4.22;;;;;;;4.71;100.00;101224.69;4865320;29;20032;-93
2023/11/25 04:39:35;;;;;;;10.52;4.90;;;;;;;4.80;100.00;101224.16;4869793;29;20029;-93
2023/11/25 04:42:04;;;;;;;12.18;4.93;;;;;;;4.78;100.00;101225.19;4844034;29;20072;-93
2023/11/25 04:44:35;;;;;;;12.70;5.07;;;;;;;4.90;100.00;101234.97;4865391;29;20047;-93
2023/11/25 04:47:11;;;;;;;13.00;4.30;;;;;;;4.88;100.00;101221.09;4871059;29;20037;-93
2023/11/25 04:50:04;;;;;;;16.35;5.75;;;;;;;4.85;100.00;101213.44;4879774;29;20045;-93
2023/11/25 04:53:19;;;;;;;12.52;5.30;;;;;;;4.90;100.00;101221.88;4880391;29;20041;-93
2023/11/25 04:55:49;;;;;;;10.45;4.97;;;;;;;4.87;100.00;101218.56;4795477;29;20050;-93
2023/11/25 04:58:23;;;;;;;13.43;5.75;;;;;;;4.72;100.00;101205.41;4806728;29;20065;-93
2023/11/25 05:01:07;;;;;;;;;;;;;;;;;;;;;
2023/11/25 05:04:18;;;;;;;12.98;4.70;;;;;;;4.80;100.00;101215.47;4880961;29;20135;-93
2023/11/25 05:06:44;;;;;;;14.10;5.47;;;;;;;4.69;100.00;101201.22;4811607;29;20061;-93
2023/11/25 05:09:18;;;;;;;13.63;5.10;;;;;;;4.74;100.00;101206.19;4830151;29;20033;-93
2023/11/25 05:11:46;;;;;;;11.85;5.72;;;;;;;4.80;100.00;101203.22;4867970;29;20083;-93
2023/11/25 05:14:15;;;;;;;11.23;4.93;;;;;;;4.79;100.00;101193.69;4850581;29;20045;-93
2023/11/25 05:16:50;;;;;;;15.50;5.68;;;;;;;4.87;100.00;101216.81;4881562;29;20048;-93
2023/11/25 05:19:46;;;;;;;18.48;6.20;;;;;;;4.93;100.00;101205.97;4850605;29;20392;-93
2023/11/25 05:22:12;;;;;;;15.82;6.30;;;;;;;4.91;100.00;101202.59;4850292;29;20043;-93
2023/11/25 05:24:41;;;;;;;15.90;6.00;;;;;;;4.89;100.00;101195.78;4831960;29;20047;-93
2023/11/25 05:30:54;;;;;;;13.43;5.03;;;;;;;4.67;100.00;101196.97;4851573;29;20045;-93
2023/11/25 05:33:30;;;;;;;11.35;4.55;;;;;;;4.54;100.00;101202.09;4834701;29;20100;-93
2023/11/25 05:35:56;;;;;;;10.77;4.95;;;;;;;4.47;100.00;101194.53;4869568;29;20040;-95
2023/11/25 05:38:34;;;;;;;11.57;4.57;;;;;;;4.58;100.00;101200.97;4850181;29;20041;-95
2023/11/25 05:41:19;;;;;;;17.10;4.85;;;;;;;4.58;100.00;101190.50;4836664;29;20424;-93
2023/11/25 05:44:02;;;;;;;14.35;5.10;;;;;;;4.61;100.00;101192.94;4879867;29;20064;-94
2023/11/25 05:46:37;;;;;;;9.20;4.65;;;;;;;4.65;100.00;101191.81;4834098;29;20037;-94
2023/11/25 05:49:04;;;;;;;12.75;4.93;;;;;;;4.62;100.00;101197.22;4847072;29;20037;-93
2023/11/25 05:54:58;;;;;;;9.18;4.70;;;;;;;4.55;100.00;101181.06;4831835;29;20057;-96
2023/11/25 05:57:54;;;;;;;12.43;4.70;;;;;;;4.61;100.00;101190.31;4842814;29;20067;-96
2023/11/25 06:00:24;;;;;;;19.17;5.30;;;;;;;4.58;100.00;101188.72;4834124;29;20037;-93
2023/11/25 06:02:52;;;;;;;10.30;5.13;;;;;;;4.59;100.00;101194.78;4827791;29;20024;-93
2023/11/25 06:05:49;;;;;;;7.50;4.85;;;;;;;4.60;100.00;101170.31;4843300;29;20048;-93
2023/11/25 06:08:20;;;;;;;10.50;5.50;;;;;;;4.62;100.00;101184.13;4848487;29;20077;-93
2023/11/25 06:10:49;;;;;;;10.73;5.25;;;;;;;4.63;100.00;101179.75;4862729;29;20526;-93
2023/11/25 06:13:15;;;;;;;9.65;4.88;;;;;;;4.62;100.00;101167.59;4830294;29;20044;-93
2023/11/25 06:15:41;;;;;;;11.15;4.57;;;;;;;4.67;100.00;101168.16;4848392;29;20033;-93
2023/11/25 06:18:13;;;;;;;11.65;4.97;;;;;;;4.70;100.00;101168.00;4848748;29;20063;-93
2023/11/25 06:20:47;;;;;;;10.05;3.88;;;;;;;4.74;100.00;101150.34;4853710;29;20041;-96
2023/11/25 06:23:17;;;;;;;9.50;4.60;;;;;;;4.83;100.00;101158.50;4823385;29;20037;-95
2023/11/25 06:25:51;;;;;;;11.82;5.00;;;;;;;4.82;100.00;101158.59;4859232;29;20037;-93
2023/11/25 06:28:20;;;;;;;9.75;4.82;;;;;;;4.82;100.00;101159.44;4833031;29;20072;-94
2023/11/25 06:30:53;;;;;;;8.15;4.25;;;;;;;4.74;100.00;101172.13;4867356;29;20123;-93
2023/11/25 06:33:33;;;;;;;7.45;4.18;;;;;;;4.74;100.00;101163.44;4847793;29;20148;-94
2023/11/25 06:36:44;;;;;;;12.07;4.70;;;;;;;4.79;100.00;101172.72;4825096;29;20081;-93
2023/11/25 06:39:19;;;;;;;15.27;4.05;;;;;;;4.81;100.00;101170.03;4847678;29;20484;-93
2023/11/25 06:42:59;;;;;;;11.27;4.88;;;;;;;4.93;100.00;101163.22;4849896;29;20051;-95
2023/11/25 06:50:11;;;;;;;11.30;4.50;;;;;;;4.69;100.00;101163.69;4789174;29;20185;-93
2023/11/25 06:53:04;;;;;;;14.55;4.40;;;;;;;4.58;100.00;101151.22;4788798;29;20035;-94
2023/11/25 06:55:44;;;;;;;12.93;4.28;;;;;;;4.46;100.00;101156.22;4800388;29;20046;-94
2023/11/25 06:58:16;;;;;;;14.10;4.53;;;;;;;4.47;100.00;101159.69;4840599;29;20536;-94
2023/11/25 07:00:58;;;;;;;13.05;4.53;;;;;;;4.42;100.00;101154.72;4824546;29;20527;-95
2023/11/25 07:03:30;;;;;;;10.80;4.22;;;;;;;4.28;100.00;101149.41;4813551;29;20410;-96
2023/11/25 07:06:21;;;;;;;;;;;;;;;;;;;;;
2023/11/25 07:09:00;;;;;;;14.95;4.15;;;;;;;4.37;100.00;101151.50;4793316;29;20035;-93
2023/11/25 07:11:34;;;;;;;8.45;3.30;;;;;;;4.36;100.00;101146.34;4831315;29;20050;-95
2023/11/25 07:14:30;;;;;;;14.38;3.83;;;;;;;4.46;100.00;101155.34;4822240;29;20122;-95
2023/11/25 07:17:45;;;;;;;11.45;3.38;;;;;;;4.42;100.00;101152.09;4831352;29;20083;-93
2023/11/25 07:20:35;;;;;;;11.70;3.78;;;;;;;4.64;100.00;101153.47;4793944;29;20058;-95
2023/11/25 07:30:17;;;;;;;12.75;4.03;;;;;;;4.79;100.00;101138.69;4793087;29;20042;-93
2023/11/25 07:32:46;;;;;;;6.60;2.80;;;;;;;4.74;100.00;101140.72;4821576;29;20041;-93
2023/11/25 07:36:26;;;;;;;;;;;;;;;;;;;;;
2023/11/25 07:39:36;;;;;;;11.38;3.63;;;;;;;5.02;100.00;101141.72;4815658;29;20072;-92
2023/11/25 07:42:04;;;;;;;12.55;3.47;;;;;;;5.00;100.00;101140.13;4816643;29;20521;-93
2023/11/25 07:44:50;;;;;;;12.55;3.97;;;;;;;5.04;100.00;101139.84;4829942;29;20128;-95
2023/11/25 07:50:28;;;;;;;9.38;3.45;;;;;;;5.16;100.00;101132.19;4853302;29;20056;-93
2023/11/25 07:52:56;;;;;;;14.05;4.25;;;;;;;5.19;100.00;101132.00;4830735;29;20039;-93
2023/11/25 07:55:32;;;;;;;10.05;3.50;;;;;;;5.15;100.00;101133.09;4846249;29;20044;-95
2023/11/25 07:58:16;;;;;;;10.05;3.25;;;;;;;5.13;100.00;101129.75;4859005;29;20061;-95
2023/11/25 08:00:44;;;;;;;13.43;3.25;;;;;;;5.04;100.00;101124.13;4841940;29;20037;-92
2023/11/25 08:03:19;;;;;;;14.05;4.40;;;;;;;5.08;100.00;101122.16;4873786;29;20587;-93
2023/11/25 08:05:45;;;;;;;18.20;3.20;;;;;;;4.98;100.00;101116.63;4857125;29;20897;-93
2023/11/25 08:08:11;;;;;;;11.40;3.33;;;;;;;5.04;100.00;101125.88;4847199;29;20036;-92
2023/11/25 08:10:37;;;;;;;12.98;4.20;;;;;;;5.11;100.00;101129.00;4844614;29;20045;-92
2023/11/25 08:17:29;;;;;;;11.63;3.25;;;;;;;5.03;100.00;101122.41;4855654;29;20049;-95
2023/11/25 08:20:02;;;;;;;10.18;3.38;;;;;;;5.00;100.00;101121.78;4844296;29;20068;-93
2023/11/25 08:22:30;;;;;;;13.70;3.75;;;;;;;5.02;100.00;101125.97;4840995;29;20057;-93
2023/11/25 08:24:57;;;;;;;9.68;4.18;;;;;;;4.96;100.00;101115.88;4832275;29;20048;-92
2023/11/25 08:27:26;;;;;;;11.65;3.08;;;;;;;5.01;100.00;101123.47;4845457;29;20057;-92
2023/11/25 08:29:52;;;;;;;12.27;3.50;;;;;;;5.04;100.00;101128.50;4879728;29;20088;-93
2023/11/25 08:32:18;;;;;;;13.77;2.92;;;;;;;5.07;100.00;101131.81;4849432;29;20400;-93
2023/11/25 08:34:44;;;;;;;7.13;4.10;;;;;;;5.12;100.00;101134.16;4843045;29;20038;-93
2023/11/25 08:41:07;;;;;;;12.20;3.42;;;;;;;5.04;100.00;101129.38;4853033;29;20137;-93
2023/11/25 08:43:43;;;;;;;11.95;3.08;;;;;;;5.01;100.00;101129.53;4836627;29;20053;-93
2023/11/25 08:49:40;;;;;;;11.35;3.13;;;;;;;5.08;100.00;101114.31;4850108;29;20037;-95
2023/11/25 08:52:25;;;;;;;9.43;3.53;;;;;;;5.10;100.00;101125.53;4827933;29;20491;-95
2023/11/25 08:54:57;;;;;;;14.35;3.85;;;;;;;5.14;100.00;101120.94;4849717;29;20080;-95
2023/11/25 08:57:23;;;;;;;13.25;4.65;;;;;;;5.14;100.00;101113.09;4869453;29;20104;-95
2023/11/25 09:00:06;;;;;;;8.10;2.92;;;;;;;5.19;100.00;101116.28;4845443;29;20049;-95
2023/11/25 09:02:35;;;;;;;13.82;3.33;;;;;;;5.14;100.00;101115.72;4833366;29;20120;-95
2023/11/25 09:05:01;;;;;;;15.00;5.20;;;;;;;5.14;100.00;101113.94;4862792;29;20045;-93
2023/11/25 09:07:32;;;;;;;19.70;5.10;;;;;;;5.13;100.00;101099.13;4853239;29;20533;-92
2023/11/25 09:10:17;;;;;;;11.23;2.83;;;;;;;5.13;100.00;101093.06;4861771;29;20033;-95
2023/11/25 09:12:51;;;;;;;11.68;3.67;;;;;;;5.12;100.00;101091.38;4844766;29;20041;-95
2023/11/25 09:16:42;;;;;;;12.68;4.32;;;;;;;5.18;100.00;101098.84;4859199;29;20064;-95
2023/11/25 09:20:09;;;;;;;20.48;3.97;;;;;;;5.24;100.00;101092.41;4857746;29;20065;-95
2023/11/25 09:22:39;;;;;;;10.10;4.53;;;;;;;5.21;100.00;101089.03;4858412;29;20552;-95
2023/11/25 09:25:05;;;;;;;9.55;3.70;;;;;;;5.30;100.00;101098.09;4858066;29;20128;-95
2023/11/25 09:31:19;;;;;;;9.45;2.97;;;;;;;5.35;100.00;101100.47;4864367;29;20136;-94
2023/11/25 09:33:45;;;;;;;9.20;4.13;;;;;;;5.39;100.00;101096.72;4847967;29;20053;-93
2023/11/25 09:36:12;;;;;;;19.27;3.58;;;;;;;5.43;100.00;101102.63;4834043;29;20044;-93
2023/11/25 09:38:38;;;;;;;13.05;3.30;;;;;;;5.42;100.00;101091.28;4833253;29;20044;-93
2023/11/25 09:41:05;;;;;;;10.88;3.50;;;;;;;5.53;100.00;101106.34;4826806;29;20116;-93
2023/11/25 09:43:31;;;;;;;17.02;3.80;;;;;;;5.56;100.00;101100.91;4839621;29;20033;-94
2023/11/25 09:45:59;;;;;;;12.45;4.00;;;;;;;5.60;100.00;101112.06;4861986;29;20034;-94
2023/11/25 09:48:27;;;;;;;12.27;3.08;;;;;;;5.57;100.00;101105.22;4828177;29;20495;-94
2023/11/25 09:50:54;;;;;;;12.40;3.13;;;;;;;5.59;100.00;101107.75;4832893;29;20036;-93
2023/11/25 09:53:31;;;;;;;12.23;2.92;;;;;;;5.62;100.00;101106.72;4831267;29;20132;-95
2023/11/25 09:56:06;;;;;;;10.65;2.83;;;;;;;5.62;100.00;101110.19;4845627;29;20065;-94
2023/11/25 09:58:34;;;;;;;9.38;3.38;;;;;;;5.64;100.00;101110.94;4851397;29;20093;-93
2023/11/25 10:01:00;;;;;;;11.82;2.88;;;;;;;5.69;100.00;101110.63;4846682;29;20431;-93
2023/11/25 10:03:33;;;;;;;8.75;3.03;;;;;;;5.70;100.00;101102.66;4853677;29;20080;-94
2023/11/25 10:06:00;;;;;;;14.27;3.28;;;;;;;5.62;100.00;101093.59;4848277;29;20128;-94
2023/11/25 10:08:37;;;;;;;13.23;2.97;;;;;;;5.54;100.00;101094.91;4834801;29;20056;-93
2023/11/25 10:14:31;;;;;;;11.68;2.65;;;;;;;5.36;100.00;101103.91;4849246;29;20069;-93
2023/11/25 10:17:20;;;;;;;13.13;2.83;;;;;;;5.32;100.00;101091.00;4864616;29;20037;-94
2023/11/25 10:19:47;;;;;;;10.52;3.55;;;;;;;5.22;100.00;101089.88;4840313;29;20039;-94
2023/11/25 10:26:05;;;;;;;19.70;4.00;;;;;;;5.28;100.00;101086.91;4840882;29;20547;-94
2023/11/25 10:29:23;;;;;;;12.38;2.75;;;;;;;5.38;100.00;101088.94;4831744;29;20078;-95
2023/11/25 10:32:03;;;;;;;19.23;3.70;;;;;;;5.39;100.00;101096.72;4835842;29;20034;-95
2023/11/25 10:34:30;;;;;;;22.33;4.22;;;;;;;5.40;100.00;101085.28;4827461;29;20093;-94
2023/11/25 10:36:57;;;;;;;11.98;3.10;;;;;;;5.48;100.00;101089.22;4832422;29;20041;-94
2023/11/25 10:39:24;;;;;;;11.40;3.33;;;;;;;5.56;100.00;101094.81;4847478;29;20037;-95
2023/11/25 10:42:16;;;;;;;11.98;4.05;;;;;;;5.67;100.00;101091.56;4864615;29;20432;-95
2023/11/25 10:44:47;;;;;;;11.27;3.17;;;;;;;5.69;100.00;101095.75;4822159;29;20041;-93
2023/11/25 10:47:39;;;;;;;18.63;3.42;;;;;;;5.74;100.00;101090.22;4850083;29;20076;-96
2023/11/25 10:54:31;;;;;;;9.52;3.15;;;;;;;5.79;100.00;101085.53;4879685;29;20059;-96
2023/11/25 10:57:18;;;;;;;17.63;3.65;;;;;;;5.87;100.00;101085.03;4864161;29;20037;-96
2023/11/25 10:59:50;;;;;;;11.98;3.45;;;;;;;5.92;100.00;101082.13;4853413;29;20157;-95
2023/11/25 11:02:43;;;;;;;10.52;3.45;;;;;;;6.00;100.00;101085.09;4864878;29;20072;-96
2023/11/25 11:05:25;;;;;;;14.48;3.53;;;;;;;5.96;100.00;101083.59;4859845;29;20044;-96
2023/11/25 11:08:06;;;;;;;13.00;4.68;;;;;;;6.03;100.00;101071.78;4847668;29;20040;-96
2023/11/25 11:10:59;;;;;;;9.70;3.65;;;;;;;6.05;100.00;101064.66;4846969;29;20029;-95
2023/11/25 11:13:40;;;;;;;10.30;3.13;;;;;;;6.08;100.00;101067.09;4829732;29;20045;-93
2023/11/25 11:16:22;;;;;;;19.90;6.47;;;;;;;6.14;100.00;101068.50;4844845;29;20056;-96
2023/11/25 11:18:58;;;;;;;18.00;3.95;;;;;;;6.23;100.00;101056.53;4848687;29;20037;-96
2023/11/25 11:21:36;;;;;;;14.77;6.18;;;;;;;6.31;100.00;101053.41;4848459;29;20041;-96
2023/11/25 11:24:05;;;;;;;8.25;3.67;;;;;;;6.33;100.00;101051.53;4852802;29;20047;-96
2023/11/25 11:26:45;;;;;;;11.50;3.38;;;;;;;6.42;100.00;101044.81;4863401;29;20053;-96
2023/11/25 11:29:44;;;;;;;11.70;3.92;;;;;;;6.43;100.00;101034.19;4832084;29;20055;-95
2023/11/25 11:32:14;;;;;;;12.70;3.45;;;;;;;6.40;100.00;101036.22;4844080;29;20040;-95
2023/11/25 11:34:52;;;;;;;8.85;2.97;;;;;;;6.38;100.00;101035.47;4845464;29;20041;-96
2023/11/25 11:37:49;;;;;;;14.38;4.30;;;;;;;6.42;100.00;101027.28;4834610;29;20484;-95
2023/11/25 11:40:29;;;;;;;6.80;3.30;;;;;;;6.44;100.00;101027.19;4860136;29;20045;-95
2023/11/25 11:42:57;;;;;;;13.15;2.92;;;;;;;6.38;100.00;101030.22;4848342;29;20053;-96
2023/11/25 11:45:25;;;;;;;13.85;3.10;;;;;;;6.37;100.00;101018.03;4828446;29;20061;-96
2023/11/25 11:48:06;;;;;;;7.75;2.58;;;;;;;6.45;100.00;101020.97;4844157;29;20083;-96
2023/11/25 11:50:41;;;;;;;12.32;3.10;;;;;;;6.39;100.00;101009.09;4831396;29;20045;-96
2023/11/25 11:53:17;;;;;;;17.25;3.08;;;;;;;6.31;100.00;101011.38;4842191;29;20049;-96
2023/11/25 11:55:51;;;;;;;16.67;2.97;;;;;;;6.30;100.00;101005.31;4824403;29;20037;-94
2023/11/25 11:58:26;;;;;;;10.02;2.70;;;;;;;6.21;100.00;100995.44;4858343;29;20052;-95
2023/11/25 12:01:00;;;;;;;19.58;3.17;;;;;;;6.18;100.00;100993.84;4860381;29;20100;-93
2023/11/25 12:03:27;;;;;;;17.45;2.83;;;;;;;6.20;100.00;100994.59;4830031;29;20129;-94
2023/11/25 12:05:59;;;;;;;14.55;2.83;;;;;;;6.26;100.00;100979.38;4853228;29;20041;-96
2023/11/25 12:08:37;;;;;;;15.13;4.60;;;;;;;6.26;100.00;100977.56;4833223;29;20120;-96
2023/11/25 12:11:05;;;;;;;16.35;2.72;;;;;;;6.27;100.00;100979.28;4840699;29;20065;-96
2023/11/25 12:13:33;;;;;;;14.00;2.92;;;;;;;6.35;100.00;100968.25;4840592;29;20062;-96
2023/11/25 12:16:00;;;;;;;18.20;3.95;;;;;;;6.42;100.00;100966.88;4825174;29;20101;-94
2023/11/25 12:18:35;;;;;;;19.88;3.85;;;;;;;6.47;100.00;100963.94;4829955;29;20041;-95
2023/11/25 12:21:10;;;;;;;9.85;3.42;;;;;;;6.45;100.00;100957.94;4835013;29;20037;-96
2023/11/25 12:23:38;;;;;;;34.03;4.10;;;;;;;6.45;100.00;100968.44;4843811;29;20056;-96
2023/11/25 12:26:07;;;;;;;13.45;2.90;;;;;;;6.50;100.00;100962.91;4828868;29;20041;-96
2023/11/25 12:28:41;;;;;;;13.63;3.00;;;;;;;6.62;100.00;100972.56;4828788;29;20056;-95
2023/11/25 12:31:11;;;;;;;15.07;3.28;;;;;;;6.65;100.00;100963.63;4859162;29;20048;-96
2023/11/25 12:33:43;;;;;;;19.92;5.05;;;;;;;6.78;100.00;100955.75;4837758;29;20042;-96
2023/11/25 12:36:12;;;;;;;14.68;2.55;;;;;;;6.80;100.00;100952.06;4845671;29;20041;-96
2023/11/25 12:38:38;;;;;;;19.60;3.88;;;;;;;6.89;100.00;100952.38;4837380;29;20044;-96
2023/11/25 12:41:12;;;;;;;16.67;3.85;;;;;;;6.98;100.00;100943.81;4834956;29;20036;-96
2023/11/25 12:44:05;;;;;;;13.48;3.47;;;;;;;7.00;100.00;100941.94;4862512;29;20072;-96
2023/11/25 12:46:32;;;;;;;12.07;2.88;;;;;;;6.95;100.00;100944.03;4852689;29;20131;-95
2023/11/25 12:49:14;;;;;;;;;;;;;;;;;;;;;
2023/11/25 12:52:06;;;;;;;19.92;3.65;;;;;;;6.91;100.00;100939.97;4862313;29;20045;-94
2023/11/25 12:54:45;;;;;;;20.23;2.65;;;;;;;6.99;100.00;100939.41;4846110;29;20129;-95
2023/11/25 12:57:15;;;;;;;13.30;2.63;;;;;;;6.86;100.00;100937.66;4844979;29;20041;-95
2023/11/25 12:59:44;;;;;;;12.73;2.50;;;;;;;6.92;100.00;100931.97;4845717;29;20378;-95
2023/11/25 13:02:12;;;;;;;12.73;3.60;;;;;;;6.96;100.00;100940.47;4830499;29;20041;-94
2023/11/25 13:04:49;;;;;;;12.02;3.08;;;;;;;7.04;100.00;100932.06;4849894;29;20123;-95
2023/11/25 13:07:31;;;;;;;13.20;2.83;;;;;;;7.04;100.00;100919.72;4846729;29;20061;-96
2023/11/25 13:10:03;;;;;;;11.13;2.60;;;;;;;7.03;100.00;100914.59;4860555;29;20120;-96
2023/11/25 13:12:31;;;;;;;19.27;2.80;;;;;;;7.14;100.00;100932.22;4863760;29;20082;-95
2023/11/25 13:14:59;;;;;;;15.25;3.05;;;;;;;7.10;100.00;100923.72;4849111;29;20072;-94
2023/11/25 13:17:28;;;;;;;12.10;2.22;;;;;;;7.16;100.00;100925.91;4849079;29;20037;-96
2023/11/25 13:19:58;;;;;;;10.60;2.47;;;;;;;7.17;100.00;100918.84;4853195;29;20127;-96
2023/11/25 14:22:34;;;;;;;13.50;3.13;;;;;;;6.88;100.00;100854.28;4834772;29;20056;-95
2023/11/25 14:25:00;;;;;;;15.60;3.45;;;;;;;6.89;100.00;100853.34;4846561;29;20048;-95
2023/11/25 14:27:29;;;;;;;30.40;3.15;;;;;;;6.91;100.00;100850.63;4860786;29;20381;-95
2023/11/25 16:11:13;;;;;;;12.80;4.30;;;;;;;7.33;100.00;100755.56;4868755;29;20361;-95
2023/11/25 16:13:40;;;;;;;6.78;2.88;;;;;;;7.32;100.00;100767.03;4823272;29;20038;-95
2023/11/25 16:34:36;;;;;;;9.40;3.05;;;;;;;7.22;100.00;100756.34;4789831;29;20055;-95
2023/11/25 16:46:41;;;;;;;;;;;;;;;;;;;;;
2023/11/25 17:02:55;;;;;;;11.93;3.85;;;;;;;7.14;100.00;100738.53;4755430;30;20067;-95
2023/11/25 17:06:18;;;;;;;11.88;4.45;;;;;;;7.22;100.00;100729.22;4718274;30;20115;-95
2023/11/25 17:08:45;;;;;;;13.80;4.55;;;;;;;7.18;100.00;100733.88;4827443;29;20076;-94
2023/11/25 17:15:31;;;;;;;12.65;4.85;;;;;;;7.19;100.00;100731.16;4880441;29;20472;-95
2023/11/25 17:17:57;;;;;;;11.68;4.05;;;;;;;7.16;100.00;100723.50;4836903;29;20055;-95
2023/11/25 17:20:24;;;;;;;13.18;4.18;;;;;;;7.20;100.00;100724.91;4850583;29;20070;-94
2023/11/25 17:22:50;;;;;;;16.90;3.88;;;;;;;7.25;100.00;100729.00;4850617;29;20089;-95
2023/11/25 17:25:17;;;;;;;13.20;4.10;;;;;;;7.23;100.00;100728.28;4850072;29;20049;-94
2023/11/25 17:27:43;;;;;;;12.43;3.90;;;;;;;7.25;100.00;100721.09;4849148;29;20076;-94
2023/11/25 17:30:10;;;;;;;12.18;3.80;;;;;;;7.29;100.00;100719.94;4874566;29;20033;-94
2023/11/25 17:32:39;;;;;;;12.63;3.65;;;;;;;7.30;100.00;100714.56;4846550;29;20029;-94
2023/11/25 17:35:06;;;;;;;11.13;3.75;;;;;;;7.27;100.00;100703.44;4823698;29;20136;-95
2023/11/25 17:37:32;;;;;;;9.48;4.43;;;;;;;7.27;100.00;100709.53;4864417;29;20041;-93
2023/11/25 17:40:01;;;;;;;14.02;5.22;;;;;;;7.35;100.00;100710.72;4844607;29;20044;-96